Terminal Aerodrome Forecast
Issued by NWS

Home | Current Version | Previous Version | Text Only | Print | Product List | Glossary On
Versions: 1 2 3 4 5 6 7 8 9 10 11 12 13
000
FTUS46 KPDT 181700
TAFPSC
TAF
KPSC 181740Z 1818/1918 24016G24KT P6SM SCT250
     FM182100 26014G22KT P6SM FEW080 SCT200
     FM190000 24011KT P6SM FEW080 SCT200
     FM190400 VRB04KT P6SM SCT120 SCT150
     FM191300 VRB02KT P6SM BKN120=

USA.gov is the U.S. government's official web portal to all federal, state and local government web resources and services.